Time;durP1;ratioP1;P1;durP2;ratioP2;P2;SDS_P1;SDS_P2;PMS_P1;PMS_P2;Temp;Humidity;BMP_temperature;BMP_pressure;BME280_temperature;BME280_humidity;BME280_pressure;Samples;Min_cycle;Max_cycle;Signal;HPM_P1;HPM_P2
2022/03/06 00:01:35;;;;;;;9.50;5.60;;;3.20;99.90;;;;;;5030917;28;20200;-67
2022/03/06 00:04:02;;;;;;;10.73;5.93;;;3.20;99.90;;;;;;5028516;28;20218;-67
2022/03/06 00:06:29;;;;;;;9.43;5.57;;;3.10;99.90;;;;;;5027499;28;20219;-67
2022/03/06 00:08:55;;;;;;;13.13;5.87;;;3.00;99.90;;;;;;5024282;28;20817;-67
2022/03/06 00:11:22;;;;;;;11.20;6.40;;;3.00;99.90;;;;;;5019740;28;20201;-67
2022/03/06 00:13:50;;;;;;;10.83;5.67;;;3.00;99.90;;;;;;5026639;28;20286;-67
2022/03/06 00:16:17;;;;;;;10.43;6.03;;;2.90;99.90;;;;;;5026730;28;20725;-67
2022/03/06 00:18:44;;;;;;;12.03;5.80;;;3.00;99.90;;;;;;5027070;28;20205;-67
2022/03/06 00:21:12;;;;;;;12.83;6.50;;;2.90;99.90;;;;;;5030633;28;20231;-67
2022/03/06 00:23:39;;;;;;;12.00;6.47;;;2.70;99.90;;;;;;5029496;28;20584;-67
2022/03/06 00:26:07;;;;;;;11.17;6.10;;;2.80;99.90;;;;;;5027040;28;20229;-72
2022/03/06 00:28:34;;;;;;;9.90;5.70;;;2.60;99.90;;;;;;5029212;28;20717;-71
2022/03/06 00:31:01;;;;;;;11.00;5.87;;;2.70;99.90;;;;;;5018418;28;20189;-72
2022/03/06 00:33:28;;;;;;;10.50;5.57;;;2.60;99.90;;;;;;5026753;28;20215;-69
2022/03/06 00:35:54;;;;;;;11.83;5.90;;;2.50;99.90;;;;;;5029923;28;20608;-73
2022/03/06 00:38:21;;;;;;;11.70;5.93;;;2.40;99.90;;;;;;5029215;28;20192;-69
2022/03/06 00:40:48;;;;;;;11.23;5.73;;;2.40;99.90;;;;;;5028720;28;20256;-69
2022/03/06 00:43:15;;;;;;;12.43;6.07;;;2.30;99.90;;;;;;5029758;28;20213;-70
2022/03/06 00:45:43;;;;;;;11.03;6.07;;;2.20;99.90;;;;;;5028392;28;20213;-69
2022/03/06 00:48:09;;;;;;;10.70;6.00;;;2.30;99.90;;;;;;5024122;28;20263;-73
2022/03/06 00:50:37;;;;;;;12.77;6.13;;;2.20;99.90;;;;;;5023636;28;20201;-69
2022/03/06 00:53:06;;;;;;;12.00;6.30;;;2.10;99.90;;;;;;5028211;28;20188;-70
2022/03/06 00:55:34;;;;;;;12.93;5.80;;;2.20;99.90;;;;;;5027074;28;20217;-73
2022/03/06 00:58:06;;;;;;;12.20;5.90;;;2.10;99.90;;;;;;5027749;28;20192;-69
2022/03/06 01:00:39;;;;;;;10.30;5.67;;;2.10;99.90;;;;;;5029307;28;20196;-69
2022/03/06 01:03:09;;;;;;;10.27;5.47;;;2.20;99.90;;;;;;5027919;28;20232;-69
2022/03/06 01:05:36;;;;;;;11.20;5.70;;;2.10;99.90;;;;;;5022391;28;20243;-69
2022/03/06 01:08:04;;;;;;;10.47;5.50;;;2.20;99.90;;;;;;5027179;28;20222;-69
2022/03/06 01:10:32;;;;;;;13.83;5.40;;;2.20;99.90;;;;;;5028908;28;20550;-69
2022/03/06 01:12:59;;;;;;;10.47;5.60;;;2.30;99.90;;;;;;5026328;28;20204;-69
2022/03/06 01:15:26;;;;;;;12.20;5.20;;;2.40;99.90;;;;;;5029809;28;20597;-73
2022/03/06 01:17:52;;;;;;;9.83;5.30;;;2.40;99.90;;;;;;5028021;28;20201;-69
2022/03/06 01:20:20;;;;;;;11.93;5.67;;;2.40;99.90;;;;;;5028702;28;20208;-69
2022/03/06 01:22:47;;;;;;;11.33;6.10;;;2.30;99.90;;;;;;5025376;28;20212;-69
2022/03/06 01:25:14;;;;;;;10.10;5.40;;;2.20;99.90;;;;;;5029728;28;20227;-72
2022/03/06 01:27:41;;;;;;;10.47;5.53;;;2.10;99.90;;;;;;5024597;28;20201;-70
2022/03/06 01:30:10;;;;;;;10.40;5.40;;;2.20;99.90;;;;;;5030042;28;20193;-69
2022/03/06 01:32:37;;;;;;;10.87;5.70;;;2.20;99.90;;;;;;5026501;28;20570;-72
2022/03/06 01:35:05;;;;;;;11.90;5.30;;;2.20;99.90;;;;;;5028268;28;20217;-74
2022/03/06 01:37:32;;;;;;;9.50;5.10;;;2.20;99.90;;;;;;5027744;28;20195;-69
2022/03/06 01:39:59;;;;;;;8.83;5.10;;;2.10;99.90;;;;;;5022308;28;20198;-70
2022/03/06 01:42:26;;;;;;;9.07;4.80;;;2.00;99.90;;;;;;5025562;28;20210;-72
2022/03/06 01:44:52;;;;;;;8.97;5.07;;;2.10;99.90;;;;;;5025678;28;20228;-70
2022/03/06 01:47:56;;;;;;;9.93;5.70;;;2.20;99.90;;;;;;5026566;28;20200;-69
2022/03/06 01:50:24;;;;;;;9.63;5.10;;;2.00;99.90;;;;;;5039680;28;20192;-70
2022/03/06 01:52:53;;;;;;;10.50;4.87;;;2.10;99.90;;;;;;5025631;28;20189;-69
2022/03/06 01:55:22;;;;;;;11.33;5.00;;;2.10;99.90;;;;;;5029363;28;20220;-69
2022/03/06 01:57:49;;;;;;;9.43;5.10;;;2.10;99.90;;;;;;5025142;28;20256;-69
2022/03/06 02:00:19;;;;;;;7.77;4.60;;;2.10;99.90;;;;;;5025893;28;20200;-67
2022/03/06 02:02:46;;;;;;;11.13;5.37;;;2.10;99.90;;;;;;5026408;28;20206;-67
2022/03/06 02:05:14;;;;;;;10.20;5.10;;;2.10;99.90;;;;;;5026075;28;20258;-67
2022/03/06 02:07:40;;;;;;;10.80;4.77;;;2.10;99.90;;;;;;5024797;28;20209;-67
2022/03/06 02:10:09;;;;;;;10.13;5.17;;;2.20;99.90;;;;;;5026577;28;20204;-73
2022/03/06 02:12:36;;;;;;;9.27;5.27;;;2.00;99.90;;;;;;5026898;28;20203;-72
2022/03/06 02:15:06;;;;;;;7.90;4.57;;;2.10;99.90;;;;;;5025448;28;20241;-69
2022/03/06 02:17:33;;;;;;;8.40;4.70;;;2.00;99.90;;;;;;5021469;28;20663;-70
2022/03/06 02:20:10;;;;;;;11.40;4.60;;;2.10;99.90;;;;;;5028016;28;20197;-73
2022/03/06 02:22:43;;;;;;;9.53;5.07;;;2.10;99.90;;;;;;5025388;28;20212;-71
2022/03/06 02:25:21;;;;;;;7.93;4.77;;;2.20;99.90;;;;;;5024782;28;20255;-67
2022/03/06 02:27:50;;;;;;;9.23;4.70;;;2.20;99.90;;;;;;5026480;28;20196;-67
2022/03/06 02:30:19;;;;;;;9.40;4.67;;;2.20;99.90;;;;;;5025980;28;20202;-68
2022/03/06 02:32:47;;;;;;;9.40;4.60;;;2.20;99.90;;;;;;5021816;28;20208;-67
2022/03/06 02:35:15;;;;;;;7.83;4.70;;;2.30;99.90;;;;;;5028081;28;20226;-67
2022/03/06 02:37:42;;;;;;;8.27;4.90;;;2.40;99.90;;;;;;5027762;28;20203;-67
2022/03/06 02:40:11;;;;;;;7.80;4.10;;;2.40;99.90;;;;;;5022984;28;20208;-67
2022/03/06 02:42:39;;;;;;;7.27;3.93;;;2.40;99.90;;;;;;5026026;28;20209;-67
2022/03/06 02:45:17;;;;;;;8.10;4.50;;;2.50;99.90;;;;;;5022902;28;20634;-67
2022/03/06 02:47:46;;;;;;;7.07;4.07;;;2.50;99.90;;;;;;5027671;28;20209;-67
2022/03/06 02:50:16;;;;;;;7.57;4.33;;;2.60;99.90;;;;;;5023903;28;20194;-67
2022/03/06 02:52:43;;;;;;;6.50;3.77;;;2.60;99.90;;;;;;5026455;28;20197;-67
2022/03/06 02:55:12;;;;;;;7.87;4.33;;;2.70;99.90;;;;;;5024093;28;20220;-67
2022/03/06 02:57:39;;;;;;;7.30;4.37;;;2.60;99.90;;;;;;5026420;28;20565;-67
2022/03/06 03:00:10;;;;;;;8.33;4.17;;;2.80;99.90;;;;;;5020824;28;20195;-67
2022/03/06 03:02:38;;;;;;;7.97;4.47;;;2.90;99.90;;;;;;5026275;28;20231;-67
2022/03/06 03:05:07;;;;;;;8.83;4.87;;;2.90;99.90;;;;;;5021437;28;20221;-67
2022/03/06 03:07:33;;;;;;;8.03;4.70;;;2.80;99.90;;;;;;5023842;28;20570;-67
2022/03/06 03:10:00;;;;;;;8.67;4.50;;;2.60;99.90;;;;;;5027596;28;20190;-68
2022/03/06 03:12:27;;;;;;;10.70;4.37;;;2.60;99.90;;;;;;5023459;28;20720;-67
2022/03/06 03:14:53;;;;;;;6.90;4.03;;;2.50;99.90;;;;;;5027023;28;20394;-67
2022/03/06 03:17:20;;;;;;;8.10;4.43;;;2.50;99.90;;;;;;5027306;28;20201;-67
2022/03/06 03:19:48;;;;;;;7.93;4.23;;;2.40;99.90;;;;;;5033675;28;20215;-71
2022/03/06 03:22:14;;;;;;;7.80;3.90;;;2.30;99.90;;;;;;5033974;28;20222;-71
2022/03/06 03:24:41;;;;;;;8.23;4.37;;;2.50;99.90;;;;;;5021370;28;20218;-69
2022/03/06 03:27:08;;;;;;;8.90;4.27;;;2.70;99.90;;;;;;5034148;28;20201;-69
2022/03/06 03:29:34;;;;;;;7.87;4.17;;;2.70;99.90;;;;;;5033585;28;20274;-73
2022/03/06 03:32:01;;;;;;;7.83;4.10;;;2.80;99.90;;;;;;5015138;28;20593;-74
2022/03/06 03:34:28;;;;;;;7.97;4.20;;;2.80;99.90;;;;;;5029355;28;20222;-70
2022/03/06 03:36:55;;;;;;;5.93;3.53;;;2.90;99.90;;;;;;5033675;28;20223;-69
2022/03/06 03:39:22;;;;;;;9.87;4.50;;;3.00;99.90;;;;;;5031516;28;20195;-70
2022/03/06 03:41:48;;;;;;;8.17;4.23;;;3.10;99.90;;;;;;5033014;28;20206;-70
2022/03/06 03:44:15;;;;;;;6.13;3.60;;;3.10;99.90;;;;;;5025898;28;20217;-70
2022/03/06 03:46:42;;;;;;;6.33;3.90;;;3.30;99.90;;;;;;5032440;28;20720;-71
2022/03/06 03:49:09;;;;;;;9.23;3.80;;;3.40;99.90;;;;;;5029477;28;20199;-69
2022/03/06 03:51:35;;;;;;;7.00;4.10;;;3.50;99.90;;;;;;5034668;28;20200;-69
2022/03/06 03:54:02;;;;;;;7.13;4.00;;;3.50;99.90;;;;;;5027925;28;20500;-69
2022/03/06 03:56:29;;;;;;;7.10;3.90;;;3.60;99.90;;;;;;5034054;28;20208;-70
2022/03/06 03:58:56;;;;;;;6.73;4.20;;;3.60;99.90;;;;;;5032131;28;20199;-69
2022/03/06 04:01:22;;;;;;;7.67;4.30;;;3.60;99.90;;;;;;5031813;28;20602;-69
2022/03/06 04:03:49;;;;;;;6.67;3.90;;;3.80;99.90;;;;;;5031585;28;20195;-70
2022/03/06 04:06:16;;;;;;;7.47;3.90;;;3.70;99.90;;;;;;5033648;28;20227;-69
2022/03/06 04:08:43;;;;;;;8.13;4.00;;;3.80;99.90;;;;;;5027026;28;20255;-69
2022/03/06 04:11:09;;;;;;;8.73;3.87;;;3.90;99.90;;;;;;5033887;28;20279;-72
2022/03/06 04:13:36;;;;;;;7.13;4.10;;;3.90;99.90;;;;;;5031818;28;20658;-69
2022/03/06 04:16:03;;;;;;;6.83;4.10;;;3.90;99.90;;;;;;5028482;28;20238;-69
2022/03/06 04:18:30;;;;;;;8.70;4.27;;;3.90;99.90;;;;;;5028615;28;20272;-69
2022/03/06 04:20:56;;;;;;;5.57;3.87;;;3.90;99.90;;;;;;5031643;28;20192;-72
2022/03/06 04:23:23;;;;;;;8.43;4.73;;;3.80;99.90;;;;;;5023780;28;20207;-69
2022/03/06 04:25:50;;;;;;;6.47;3.73;;;3.80;99.90;;;;;;5026843;28;20226;-71
2022/03/06 04:28:17;;;;;;;5.90;3.57;;;3.80;99.90;;;;;;5032443;28;20214;-69
2022/03/06 04:30:43;;;;;;;6.07;3.70;;;3.70;99.90;;;;;;5029053;28;20468;-69
2022/03/06 04:33:11;;;;;;;7.20;3.53;;;3.60;99.90;;;;;;5028038;28;20198;-70
2022/03/06 04:35:37;;;;;;;7.37;3.77;;;3.70;99.90;;;;;;5025484;28;20219;-73
2022/03/06 04:38:04;;;;;;;6.33;3.77;;;3.70;99.90;;;;;;5030813;28;20199;-70
2022/03/06 04:40:31;;;;;;;7.57;3.90;;;3.70;99.90;;;;;;5028687;28;20199;-69
2022/03/06 04:42:58;;;;;;;7.93;4.03;;;3.80;99.90;;;;;;5029313;28;20606;-71
2022/03/06 04:45:25;;;;;;;8.00;3.97;;;3.70;99.90;;;;;;5024277;28;20231;-71
2022/03/06 04:47:52;;;;;;;6.03;3.97;;;3.60;99.90;;;;;;5030467;28;20206;-73
2022/03/06 04:50:19;;;;;;;8.00;4.50;;;3.50;99.90;;;;;;5030117;28;20677;-69
2022/03/06 04:52:51;;;;;;;5.20;3.43;;;3.50;99.90;;;;;;5026100;28;20199;-69
2022/03/06 04:55:18;;;;;;;7.50;3.97;;;3.40;99.90;;;;;;5029265;28;20219;-70
2022/03/06 04:57:46;;;;;;;6.43;3.93;;;3.30;99.90;;;;;;5027486;28;20548;-73
2022/03/06 05:00:15;;;;;;;6.63;3.80;;;3.20;99.90;;;;;;5027187;28;20261;-70
2022/03/06 05:02:41;;;;;;;7.83;3.63;;;3.20;99.90;;;;;;5029411;28;20587;-71
2022/03/06 05:05:09;;;;;;;10.13;3.73;;;3.00;99.90;;;;;;5026890;28;20229;-69
2022/03/06 05:07:36;;;;;;;6.33;3.63;;;3.10;99.90;;;;;;5030849;28;20261;-70
2022/03/06 05:10:07;;;;;;;8.37;4.03;;;3.00;99.90;;;;;;5021476;28;20203;-69
2022/03/06 05:12:35;;;;;;;6.90;4.07;;;2.90;99.90;;;;;;5027169;28;20210;-69
2022/03/06 05:15:02;;;;;;;7.83;3.73;;;2.80;99.90;;;;;;5028831;28;20221;-69
2022/03/06 05:17:33;;;;;;;6.40;3.97;;;2.80;99.90;;;;;;5025607;28;20206;-69
2022/03/06 05:20:00;;;;;;;6.00;3.73;;;2.70;99.90;;;;;;5028392;28;20194;-69
2022/03/06 05:22:27;;;;;;;7.03;4.07;;;2.60;99.90;;;;;;5029157;28;20210;-70
2022/03/06 05:24:54;;;;;;;6.60;3.70;;;2.60;99.90;;;;;;5028593;28;20693;-70
2022/03/06 05:27:20;;;;;;;6.43;3.80;;;2.50;99.90;;;;;;5025671;28;20197;-69
2022/03/06 05:29:47;;;;;;;6.63;3.70;;;2.50;99.90;;;;;;5030016;28;20691;-73
2022/03/06 05:32:14;;;;;;;8.30;3.97;;;2.50;99.90;;;;;;5027131;28;20202;-69
2022/03/06 05:34:40;;;;;;;6.50;3.73;;;2.60;99.90;;;;;;5024179;28;20195;-69
2022/03/06 05:37:07;;;;;;;7.13;3.97;;;2.60;99.90;;;;;;5028670;28;20191;-69
2022/03/06 05:39:34;;;;;;;6.37;3.80;;;2.60;99.90;;;;;;5027420;28;20197;-73
2022/03/06 05:42:01;;;;;;;5.73;3.67;;;2.70;99.90;;;;;;5024623;28;20200;-69
2022/03/06 05:44:27;;;;;;;6.43;3.60;;;2.70;99.90;;;;;;5027064;28;20674;-69
2022/03/06 05:46:54;;;;;;;4.77;3.47;;;2.80;99.90;;;;;;5029564;28;20211;-73
2022/03/06 05:49:21;;;;;;;7.03;4.07;;;2.90;99.90;;;;;;5029120;28;20210;-67
2022/03/06 05:51:47;;;;;;;7.13;3.83;;;2.90;99.90;;;;;;5027367;28;20197;-67
2022/03/06 05:54:14;;;;;;;8.37;3.87;;;2.90;99.90;;;;;;5023072;28;20230;-67
2022/03/06 05:56:41;;;;;;;6.67;3.70;;;2.90;99.90;;;;;;5025657;28;20721;-67
2022/03/06 05:59:08;;;;;;;5.03;3.33;;;3.00;99.90;;;;;;5029079;28;20285;-67
2022/03/06 06:01:35;;;;;;;7.70;4.30;;;3.00;99.90;;;;;;5025087;28;20663;-67
2022/03/06 06:04:02;;;;;;;7.17;4.20;;;3.10;99.90;;;;;;5022263;28;20229;-67
2022/03/06 06:06:28;;;;;;;6.60;3.70;;;3.10;99.90;;;;;;5026371;28;20222;-67
2022/03/06 06:08:56;;;;;;;7.57;4.33;;;3.10;99.90;;;;;;5026123;28;20203;-67
2022/03/06 06:11:22;;;;;;;7.33;3.90;;;3.10;99.90;;;;;;5027849;28;20206;-67
2022/03/06 06:13:50;;;;;;;6.13;4.07;;;3.10;99.90;;;;;;5026166;28;20203;-67
2022/03/06 06:16:17;;;;;;;7.70;4.10;;;3.20;99.90;;;;;;5023778;28;20584;-67
2022/03/06 06:18:43;;;;;;;6.57;4.03;;;3.30;99.90;;;;;;5025050;28;20670;-67
2022/03/06 06:21:11;;;;;;;7.23;4.20;;;3.40;99.90;;;;;;5025203;28;20225;-67
2022/03/06 06:23:39;;;;;;;6.03;3.40;;;3.50;99.90;;;;;;5027969;28;20294;-72
2022/03/06 06:26:06;;;;;;;5.17;3.23;;;3.40;99.90;;;;;;5028378;28;20230;-69
2022/03/06 06:28:32;;;;;;;6.17;4.13;;;3.40;99.90;;;;;;5026167;28;20282;-69
2022/03/06 06:31:00;;;;;;;7.43;4.00;;;3.40;99.90;;;;;;5023055;28;20662;-73
2022/03/06 06:33:27;;;;;;;6.90;4.23;;;3.50;99.90;;;;;;5016568;28;20191;-69
2022/03/06 06:35:54;;;;;;;7.10;4.30;;;3.50;99.90;;;;;;5017021;28;20226;-67
2022/03/06 06:38:21;;;;;;;7.17;3.97;;;3.60;99.90;;;;;;5025330;28;20657;-67
2022/03/06 06:40:49;;;;;;;7.70;4.47;;;3.60;99.90;;;;;;5023258;28;20202;-67
2022/03/06 06:43:16;;;;;;;6.53;3.90;;;3.70;99.90;;;;;;5022392;28;20199;-70
2022/03/06 06:45:43;;;;;;;6.80;4.20;;;3.70;99.90;;;;;;5022908;28;20660;-69
2022/03/06 06:48:09;;;;;;;7.07;4.50;;;3.70;99.90;;;;;;5019966;28;20257;-73
2022/03/06 06:50:36;;;;;;;9.50;4.57;;;3.70;99.90;;;;;;5026736;28;20206;-69
2022/03/06 06:53:03;;;;;;;7.10;4.30;;;3.80;99.90;;;;;;5026749;28;20202;-69
2022/03/06 06:55:30;;;;;;;6.97;4.40;;;3.90;99.90;;;;;;5022271;28;20231;-69
2022/03/06 06:57:56;;;;;;;7.03;4.43;;;4.00;99.90;;;;;;5024903;28;20199;-69
2022/03/06 07:00:23;;;;;;;7.23;3.90;;;4.10;99.90;;;;;;5020040;28;20203;-68
2022/03/06 07:02:50;;;;;;;6.57;3.93;;;4.10;99.90;;;;;;5020733;28;20668;-70
2022/03/06 07:05:17;;;;;;;7.53;4.00;;;4.00;99.90;;;;;;5022804;28;20234;-69
2022/03/06 07:07:43;;;;;;;6.50;4.13;;;4.00;99.90;;;;;;5025016;28;20198;-69
2022/03/06 07:10:10;;;;;;;6.20;4.07;;;4.00;99.90;;;;;;5013148;28;20199;-72
2022/03/06 07:12:48;;;;;;;10.90;4.60;;;4.00;99.90;;;;;;5023513;28;20210;-69
2022/03/06 07:15:15;;;;;;;6.63;4.40;;;4.00;99.90;;;;;;5020115;28;20223;-70
2022/03/06 07:17:42;;;;;;;6.20;4.07;;;4.00;99.90;;;;;;5025316;28;20211;-70
2022/03/06 07:20:09;;;;;;;8.53;4.47;;;3.90;99.90;;;;;;5026290;28;20195;-71
2022/03/06 07:22:36;;;;;;;6.63;4.30;;;3.90;99.90;;;;;;5021753;28;20648;-69
2022/03/06 07:25:04;;;;;;;6.83;4.60;;;3.80;99.90;;;;;;5018252;28;20714;-72
2022/03/06 07:27:31;;;;;;;6.53;3.97;;;3.70;99.90;;;;;;5020931;28;20409;-71
2022/03/06 07:29:58;;;;;;;6.17;4.27;;;3.70;99.90;;;;;;5024629;28;20285;-70
2022/03/06 07:32:25;;;;;;;5.97;4.00;;;3.70;99.90;;;;;;5023357;28;20195;-68
2022/03/06 07:34:52;;;;;;;7.60;4.40;;;3.70;99.90;;;;;;5023667;28;20194;-72
2022/03/06 07:37:18;;;;;;;7.70;4.23;;;3.60;99.90;;;;;;5027016;28;20279;-69
2022/03/06 07:39:45;;;;;;;7.30;4.30;;;3.60;99.90;;;;;;5022184;28;20210;-73
2022/03/06 07:42:12;;;;;;;8.33;4.77;;;3.60;99.90;;;;;;5022821;28;20210;-69
2022/03/06 07:44:38;;;;;;;8.57;4.53;;;3.60;99.90;;;;;;5020883;28;20207;-72
2022/03/06 07:47:05;;;;;;;7.43;4.70;;;3.70;99.90;;;;;;5023641;28;20237;-69
2022/03/06 07:49:32;;;;;;;9.00;4.70;;;3.70;99.90;;;;;;5024122;28;20271;-69
2022/03/06 07:52:03;;;;;;;7.83;4.50;;;3.80;99.90;;;;;;5022547;28;20198;-72
2022/03/06 07:54:30;;;;;;;8.27;4.80;;;3.90;99.90;;;;;;5021856;28;20199;-69
2022/03/06 07:56:57;;;;;;;8.43;4.87;;;4.00;99.90;;;;;;5026082;28;20223;-71
2022/03/06 07:59:25;;;;;;;7.63;4.83;;;4.10;99.90;;;;;;5027792;28;20201;-71
2022/03/06 08:01:53;;;;;;;9.17;4.83;;;4.20;99.90;;;;;;5021963;28;20580;-69
2022/03/06 08:04:20;;;;;;;7.90;5.03;;;4.30;99.90;;;;;;5027632;28;20860;-70
2022/03/06 08:06:47;;;;;;;7.80;4.83;;;4.40;99.90;;;;;;5029765;28;20310;-69
2022/03/06 08:09:15;;;;;;;8.47;4.77;;;4.50;99.90;;;;;;5024553;28;20196;-72
2022/03/06 08:11:42;;;;;;;8.53;5.20;;;4.60;99.90;;;;;;5025760;28;20664;-69
2022/03/06 08:14:08;;;;;;;8.60;5.60;;;4.70;99.90;;;;;;5022014;28;20735;-72
2022/03/06 08:16:35;;;;;;;9.20;5.00;;;4.80;99.90;;;;;;5029079;28;20215;-69
2022/03/06 08:19:02;;;;;;;7.17;4.87;;;4.80;99.90;;;;;;5024858;28;20223;-69
2022/03/06 08:21:29;;;;;;;7.07;4.80;;;4.90;99.90;;;;;;5028146;28;20196;-71
2022/03/06 08:23:56;;;;;;;7.53;4.87;;;5.00;99.90;;;;;;5024334;28;20591;-70
2022/03/06 08:26:26;;;;;;;8.13;4.97;;;5.10;99.90;;;;;;5028126;28;20228;-69
2022/03/06 08:28:53;;;;;;;7.83;5.37;;;5.20;99.90;;;;;;5025249;28;20191;-71
2022/03/06 08:31:20;;;;;;;9.47;5.27;;;5.30;99.90;;;;;;5025159;28;20218;-74
2022/03/06 08:33:47;;;;;;;8.23;4.83;;;5.40;99.90;;;;;;5025965;28;20641;-70
2022/03/06 08:36:14;;;;;;;7.47;4.80;;;5.30;99.90;;;;;;5029523;28;20222;-70
2022/03/06 08:38:41;;;;;;;11.70;4.97;;;5.30;99.90;;;;;;5027334;28;20292;-69
2022/03/06 08:41:08;;;;;;;9.00;5.00;;;5.50;99.90;;;;;;5028721;28;20195;-69
2022/03/06 08:43:34;;;;;;;8.90;5.20;;;5.60;99.90;;;;;;5027306;28;20204;-71
2022/03/06 08:46:03;;;;;;;8.93;5.80;;;5.70;99.90;;;;;;5026309;28;20213;-69
2022/03/06 08:48:30;;;;;;;7.90;4.83;;;5.80;99.90;;;;;;5025130;28;20208;-70
2022/03/06 08:50:57;;;;;;;8.93;5.50;;;5.80;99.90;;;;;;5027442;28;20232;-71
2022/03/06 08:53:25;;;;;;;8.87;5.33;;;5.80;99.90;;;;;;5026727;28;20582;-69
2022/03/06 08:55:51;;;;;;;10.93;5.40;;;5.90;99.90;;;;;;5026728;28;20217;-70
2022/03/06 08:58:18;;;;;;;8.03;5.60;;;6.00;99.90;;;;;;5022208;28;20193;-69
2022/03/06 09:00:45;;;;;;;10.30;5.43;;;6.10;99.90;;;;;;5026243;28;20203;-71
2022/03/06 09:03:12;;;;;;;9.20;4.97;;;6.20;99.90;;;;;;5026466;28;20644;-69
2022/03/06 09:05:40;;;;;;;9.10;5.27;;;6.40;99.90;;;;;;5026713;28;20285;-69
2022/03/06 09:08:09;;;;;;;9.00;5.10;;;6.40;99.90;;;;;;5029402;28;20663;-69
2022/03/06 09:10:38;;;;;;;6.90;4.63;;;6.50;99.90;;;;;;5027073;28;20218;-71
2022/03/06 09:13:05;;;;;;;7.63;5.03;;;6.50;99.90;;;;;;5026891;28;20202;-72
2022/03/06 09:15:32;;;;;;;15.13;5.50;;;6.50;99.90;;;;;;5024623;28;20218;-69
2022/03/06 09:17:59;;;;;;;7.03;4.50;;;6.50;99.90;;;;;;5026400;28;20211;-69
2022/03/06 09:20:26;;;;;;;6.93;4.67;;;6.50;99.90;;;;;;5028417;28;20209;-67
2022/03/06 09:22:54;;;;;;;8.53;4.97;;;6.40;99.90;;;;;;5025159;28;20198;-67
2022/03/06 09:25:20;;;;;;;7.57;5.03;;;6.40;99.90;;;;;;5023412;28;20705;-67
2022/03/06 09:27:47;;;;;;;10.83;5.00;;;6.50;99.90;;;;;;5026485;28;20778;-68
2022/03/06 09:30:14;;;;;;;9.60;5.70;;;6.70;99.90;;;;;;5027523;28;20673;-67
2022/03/06 09:32:41;;;;;;;9.23;5.40;;;6.70;99.90;;;;;;5021133;28;20203;-67
2022/03/06 09:35:09;;;;;;;11.33;5.10;;;6.70;99.90;;;;;;5027219;28;20713;-67
2022/03/06 09:37:41;;;;;;;6.93;4.70;;;6.70;99.90;;;;;;5027058;28;20207;-67
2022/03/06 09:40:09;;;;;;;8.13;5.57;;;6.70;99.90;;;;;;5027083;28;20203;-67
2022/03/06 09:42:35;;;;;;;10.17;5.43;;;6.80;99.90;;;;;;5025652;28;20206;-67
2022/03/06 09:45:05;;;;;;;10.87;5.40;;;6.90;99.90;;;;;;5026642;28;20223;-67
2022/03/06 09:47:33;;;;;;;11.50;5.63;;;7.00;99.90;;;;;;5026547;28;20220;-67
2022/03/06 09:50:01;;;;;;;8.93;5.70;;;7.10;99.90;;;;;;5021137;28;20195;-68
2022/03/06 09:52:30;;;;;;;8.40;5.40;;;7.20;99.90;;;;;;5027450;28;20295;-68
2022/03/06 09:54:57;;;;;;;9.83;5.50;;;7.40;99.90;;;;;;5027848;28;20218;-68
2022/03/06 09:57:24;;;;;;;9.83;5.23;;;7.60;99.90;;;;;;5026624;28;20215;-67
2022/03/06 09:59:51;;;;;;;9.47;5.80;;;7.70;99.50;;;;;;5028568;28;20206;-67
2022/03/06 10:02:18;;;;;;;9.33;5.40;;;7.40;99.90;;;;;;5023551;28;20207;-67
2022/03/06 10:04:46;;;;;;;10.20;6.43;;;7.30;99.90;;;;;;5023720;28;20199;-67
2022/03/06 10:07:15;;;;;;;7.97;5.03;;;7.30;99.90;;;;;;5018481;28;20230;-67
2022/03/06 10:09:41;;;;;;;10.17;5.80;;;7.50;99.70;;;;;;5016509;28;20196;-65
2022/03/06 10:12:22;;;;;;;10.83;6.00;;;7.70;99.60;;;;;;5024825;28;20459;-66
2022/03/06 10:14:52;;;;;;;10.80;5.83;;;8.00;99.80;;;;;;5024384;28;20192;-66
2022/03/06 10:17:23;;;;;;;9.97;5.80;;;8.00;99.60;;;;;;5025670;28;20226;-67
2022/03/06 10:19:54;;;;;;;9.47;5.97;;;8.10;99.90;;;;;;5019607;28;20633;-67
2022/03/06 10:22:43;;;;;;;13.13;6.37;;;8.20;99.90;;;;;;5026641;28;20269;-69
2022/03/06 10:25:21;;;;;;;10.00;6.50;;;8.10;99.50;;;;;;5020718;28;20215;-70
2022/03/06 10:27:56;;;;;;;10.83;6.10;;;8.00;99.90;;;;;;5025864;28;20223;-67
2022/03/06 10:30:35;;;;;;;9.77;5.73;;;7.80;99.50;;;;;;5021073;28;20198;-67
2022/03/06 10:33:10;;;;;;;9.67;5.57;;;7.70;99.50;;;;;;5020719;28;20188;-67
2022/03/06 10:35:42;;;;;;;9.90;5.23;;;7.90;99.50;;;;;;5022374;28;20219;-66
2022/03/06 10:38:22;;;;;;;10.40;6.27;;;7.90;99.30;;;;;;5025716;28;20195;-67
2022/03/06 10:40:50;;;;;;;9.00;5.87;;;7.80;99.50;;;;;;5025188;28;20219;-67
2022/03/06 10:43:23;;;;;;;10.20;6.47;;;7.90;99.70;;;;;;5020092;28;20259;-67
2022/03/06 10:45:51;;;;;;;10.63;6.10;;;8.10;99.70;;;;;;5019998;28;20222;-66
2022/03/06 10:48:18;;;;;;;10.30;6.13;;;8.20;99.70;;;;;;5025071;28;20212;-69
2022/03/06 10:50:45;;;;;;;10.23;6.17;;;8.30;99.50;;;;;;5018702;28;20205;-70
2022/03/06 10:53:20;;;;;;;9.70;6.30;;;8.30;99.30;;;;;;5026247;28;20250;-70
2022/03/06 10:55:47;;;;;;;9.50;5.87;;;8.30;99.20;;;;;;5022546;28;20219;-69
2022/03/06 10:58:14;;;;;;;8.60;5.50;;;8.30;99.00;;;;;;5025364;28;20293;-70
2022/03/06 11:00:41;;;;;;;7.77;5.50;;;7.90;98.60;;;;;;5026163;28;20200;-69
2022/03/06 11:03:12;;;;;;;8.63;5.73;;;7.70;99.00;;;;;;5021263;28;20219;-69
2022/03/06 11:05:48;;;;;;;8.83;5.13;;;7.70;99.60;;;;;;5023633;28;20217;-70
2022/03/06 11:08:16;;;;;;;10.03;6.07;;;7.80;99.90;;;;;;5027081;28;20218;-69
2022/03/06 11:10:44;;;;;;;12.67;6.40;;;8.00;99.70;;;;;;5024838;28;20234;-69
2022/03/06 11:13:14;;;;;;;8.10;5.63;;;8.00;99.80;;;;;;5025125;28;20188;-69
2022/03/06 11:15:42;;;;;;;8.60;5.17;;;8.30;99.30;;;;;;5026034;28;20223;-69
2022/03/06 11:18:09;;;;;;;12.50;6.10;;;8.00;99.10;;;;;;5027235;28;20460;-69
2022/03/06 11:20:38;;;;;;;9.13;5.60;;;8.00;99.30;;;;;;5023767;28;20215;-69
2022/03/06 11:23:22;;;;;;;11.23;5.67;;;8.00;99.30;;;;;;5018831;28;20598;-69
2022/03/06 11:26:17;;;;;;;9.37;5.67;;;8.00;99.40;;;;;;5025062;28;20211;-69
2022/03/06 11:29:36;;;;;;;9.20;5.93;;;8.10;99.20;;;;;;5026273;28;20199;-69
2022/03/06 11:32:05;;;;;;;13.50;6.23;;;8.20;99.00;;;;;;5020523;28;20201;-69
2022/03/06 11:34:40;;;;;;;9.53;6.13;;;8.10;99.10;;;;;;5025406;28;20208;-70
2022/03/06 11:37:12;;;;;;;10.30;6.07;;;8.00;99.10;;;;;;5025255;28;20209;-69
2022/03/06 11:39:38;;;;;;;8.67;5.50;;;8.00;99.40;;;;;;5025224;28;20713;-69
2022/03/06 11:42:07;;;;;;;12.13;6.13;;;8.10;99.70;;;;;;5029922;28;20201;-69
2022/03/06 11:44:36;;;;;;;9.63;5.87;;;8.30;99.40;;;;;;5029845;28;20673;-69
2022/03/06 11:47:22;;;;;;;9.73;6.10;;;8.20;98.90;;;;;;5024966;28;20591;-69
2022/03/06 11:49:54;;;;;;;8.70;6.00;;;8.30;99.40;;;;;;5030025;28;20189;-69
2022/03/06 11:52:31;;;;;;;9.50;6.03;;;8.50;99.90;;;;;;5030829;28;20220;-69
2022/03/06 11:54:59;;;;;;;10.73;5.30;;;8.60;99.50;;;;;;5031792;28;20227;-70
2022/03/06 11:57:43;;;;;;;8.23;5.40;;;8.50;99.50;;;;;;5027364;28;20218;-69
2022/03/06 12:00:20;;;;;;;10.63;6.03;;;8.50;99.10;;;;;;5012202;28;20583;-69
2022/03/06 12:02:53;;;;;;;7.67;5.10;;;8.20;99.00;;;;;;5024613;28;20327;-68
2022/03/06 12:05:22;;;;;;;8.20;5.80;;;8.10;99.10;;;;;;5023515;28;20696;-69
2022/03/06 12:07:50;;;;;;;8.93;5.87;;;7.90;99.00;;;;;;5025176;28;20227;-65
2022/03/06 12:10:17;;;;;;;10.30;5.80;;;7.80;99.30;;;;;;5024106;28;20201;-65
2022/03/06 12:12:58;;;;;;;8.80;5.93;;;7.90;99.60;;;;;;5025099;28;20187;-66
2022/03/06 12:15:27;;;;;;;7.97;5.57;;;8.00;99.90;;;;;;5020693;28;20217;-66
2022/03/06 12:18:01;;;;;;;8.80;5.33;;;8.20;99.90;;;;;;5026726;28;20201;-66
2022/03/06 12:20:29;;;;;;;8.57;5.90;;;8.50;99.70;;;;;;5021513;28;20205;-68
2022/03/06 12:23:02;;;;;;;7.60;5.60;;;8.50;99.90;;;;;;5028007;28;20679;-68
2022/03/06 12:25:31;;;;;;;9.50;6.00;;;8.70;99.50;;;;;;5021870;28;20882;-70
2022/03/06 12:28:01;;;;;;;10.20;5.87;;;8.60;99.60;;;;;;5024943;28;20728;-69
2022/03/06 12:30:32;;;;;;;9.93;5.43;;;8.70;99.60;;;;;;5027299;28;20198;-67
2022/03/06 12:33:27;;;;;;;11.13;5.93;;;8.90;99.60;;;;;;5027597;28;20198;-68
2022/03/06 12:36:10;;;;;;;9.87;6.07;;;8.90;99.20;;;;;;5029154;28;20217;-67
2022/03/06 12:38:37;;;;;;;10.63;5.83;;;8.60;99.60;;;;;;5046015;28;20210;-67
2022/03/06 12:41:06;;;;;;;11.87;6.43;;;8.50;99.60;;;;;;5029919;28;20196;-67
2022/03/06 12:43:33;;;;;;;8.90;6.00;;;8.50;99.90;;;;;;5032651;28;20233;-67
2022/03/06 12:46:00;;;;;;;8.73;5.83;;;8.70;99.80;;;;;;5027109;28;20214;-67
2022/03/06 12:48:28;;;;;;;9.20;5.83;;;8.90;99.80;;;;;;5035686;28;20243;-67
2022/03/06 12:50:55;;;;;;;10.57;6.00;;;9.00;99.50;;;;;;5027536;28;20232;-68
2022/03/06 12:53:22;;;;;;;8.80;5.67;;;9.20;99.20;;;;;;5029136;28;20566;-67
2022/03/06 12:55:59;;;;;;;11.50;5.93;;;8.90;99.10;;;;;;5034622;28;20271;-68
2022/03/06 12:58:41;;;;;;;9.60;6.17;;;8.80;99.50;;;;;;5030593;28;20197;-65
2022/03/06 13:01:10;;;;;;;9.50;5.93;;;9.00;99.40;;;;;;5029692;28;20285;-66
2022/03/06 13:03:38;;;;;;;10.40;6.00;;;9.20;99.50;;;;;;5032340;28;20293;-66